Time;durP1;ratioP1;P1;durP2;ratioP2;P2;SDS_P1;SDS_P2;PMS_P1;PMS_P2;Temp;Humidity;BMP_temperature;BMP_pressure;BME280_temperature;BME280_humidity;BME280_pressure;Samples;Min_cycle;Max_cycle;Signal;HPM_P1;HPM_P2
2023/03/01 00:01:37;;;;;;;78.80;20.25;;;6.30;81.10;;;;;;5045829;28;20033;-56
2023/03/01 00:04:03;;;;;;;82.18;19.92;;;6.30;81.20;;;;;;5047327;28;20025;-56
2023/03/01 00:06:28;;;;;;;92.72;19.75;;;6.30;81.20;;;;;;5045642;28;20022;-56
2023/03/01 00:08:54;;;;;;;86.60;18.80;;;6.20;81.20;;;;;;5062325;28;20037;-56
2023/03/01 00:11:30;;;;;;;61.50;17.95;;;6.20;81.20;;;;;;5061221;28;20022;-56
2023/03/01 00:13:57;;;;;;;73.30;20.50;;;6.20;81.20;;;;;;5046956;28;20041;-56
2023/03/01 00:16:27;;;;;;;61.45;18.52;;;6.20;81.20;;;;;;5045681;28;20021;-56
2023/03/01 00:18:54;;;;;;;50.92;18.08;;;6.20;81.20;;;;;;5062320;28;20026;-56
2023/03/01 00:21:20;;;;;;;68.45;18.58;;;6.20;81.30;;;;;;5046825;28;20025;-56
2023/03/01 00:23:45;;;;;;;58.97;18.80;;;6.20;81.30;;;;;;5046907;28;20040;-56
2023/03/01 00:26:12;;;;;;;70.50;19.27;;;6.20;81.30;;;;;;5045445;28;20048;-56
2023/03/01 00:28:38;;;;;;;57.40;18.08;;;6.10;81.20;;;;;;5062064;28;20132;-56
2023/03/01 00:31:09;;;;;;;58.97;18.17;;;6.10;81.20;;;;;;5046798;28;20029;-56
2023/03/01 00:33:34;;;;;;;63.85;17.17;;;6.10;81.20;;;;;;5045013;28;20037;-56
2023/03/01 00:36:00;;;;;;;57.85;18.60;;;6.10;81.30;;;;;;5061788;28;20032;-56
2023/03/01 00:38:25;;;;;;;70.32;17.67;;;6.10;81.30;;;;;;5061779;28;20121;-56
2023/03/01 00:40:51;;;;;;;56.38;17.65;;;6.10;81.30;;;;;;5044968;28;20026;-56
2023/03/01 00:43:17;;;;;;;59.22;17.17;;;6.10;81.40;;;;;;5061645;28;20067;-56
2023/03/01 00:45:43;;;;;;;63.55;18.25;;;6.10;81.50;;;;;;5061487;28;20044;-54
2023/03/01 00:48:09;;;;;;;58.55;17.65;;;6.00;81.50;;;;;;5044936;28;20033;-56
2023/03/01 00:50:34;;;;;;;53.30;17.23;;;6.00;81.40;;;;;;5046212;28;20034;-56
2023/03/01 00:53:00;;;;;;;53.80;17.80;;;6.10;81.50;;;;;;5046300;28;20037;-55
2023/03/01 00:55:25;;;;;;;51.60;18.30;;;6.00;81.40;;;;;;5046170;28;20033;-56
2023/03/01 00:57:51;;;;;;;53.38;18.10;;;6.00;81.50;;;;;;5061417;28;20060;-56
2023/03/01 01:00:17;;;;;;;53.42;18.27;;;6.00;81.50;;;;;;5061468;28;20033;-56
2023/03/01 01:02:43;;;;;;;60.00;18.00;;;6.00;81.50;;;;;;5061055;28;20025;-56
2023/03/01 01:05:08;;;;;;;58.70;18.13;;;6.00;81.50;;;;;;5046121;28;20085;-56
2023/03/01 01:07:34;;;;;;;56.17;17.77;;;6.00;81.50;;;;;;5061261;28;20037;-56
2023/03/01 01:09:59;;;;;;;47.97;16.95;;;6.00;81.50;;;;;;5044638;28;20055;-56
2023/03/01 01:12:25;;;;;;;64.13;18.13;;;6.00;81.70;;;;;;5045812;28;20052;-56
2023/03/01 01:14:51;;;;;;;48.20;16.52;;;5.90;81.60;;;;;;5044548;28;20035;-56
2023/03/01 01:17:16;;;;;;;47.33;17.10;;;5.90;81.60;;;;;;5060771;28;20068;-56
2023/03/01 01:19:42;;;;;;;50.78;17.45;;;5.90;81.60;;;;;;5044385;28;20040;-56
2023/03/01 01:22:07;;;;;;;48.92;17.08;;;5.90;81.70;;;;;;5045707;28;20030;-54
2023/03/01 01:24:33;;;;;;;54.63;16.63;;;5.90;81.70;;;;;;5046106;28;20025;-56
2023/03/01 01:26:58;;;;;;;58.42;16.17;;;5.90;81.70;;;;;;5060846;28;20029;-56
2023/03/01 01:29:24;;;;;;;48.53;16.58;;;5.90;81.70;;;;;;5061206;28;20089;-56
2023/03/01 01:31:49;;;;;;;51.33;17.05;;;5.90;81.70;;;;;;5061519;28;20036;-56
2023/03/01 01:34:19;;;;;;;40.13;16.23;;;5.90;81.70;;;;;;5045570;28;20041;-56
2023/03/01 01:36:48;;;;;;;48.88;15.00;;;5.90;81.70;;;;;;5060715;28;20021;-56
2023/03/01 01:39:14;;;;;;;52.78;15.98;;;5.90;81.80;;;;;;5043920;28;20033;-56
2023/03/01 01:41:41;;;;;;;47.88;17.00;;;5.90;81.80;;;;;;5043860;28;20020;-56
2023/03/01 01:44:26;;;;;;;38.25;16.15;;;5.80;81.70;;;;;;5045356;28;20072;-56
2023/03/01 01:47:14;;;;;;;36.92;15.35;;;5.80;81.70;;;;;;5045652;28;20022;-56
2023/03/01 01:49:50;;;;;;;36.42;15.90;;;5.80;81.80;;;;;;5060328;28;20041;-55
2023/03/01 01:52:25;;;;;;;42.70;15.40;;;5.80;81.80;;;;;;5027343;28;20033;-56
2023/03/01 01:54:57;;;;;;;42.17;14.83;;;5.80;81.80;;;;;;5043823;28;20107;-56
2023/03/01 01:57:29;;;;;;;46.35;16.42;;;5.80;81.80;;;;;;5043648;28;20296;-57
2023/03/01 01:59:56;;;;;;;40.70;14.85;;;5.80;81.80;;;;;;5043679;28;20037;-58
2023/03/01 02:02:22;;;;;;;39.78;15.43;;;5.80;81.80;;;;;;5043725;28;20052;-58
2023/03/01 02:04:48;;;;;;;44.92;16.60;;;5.80;81.90;;;;;;5043764;28;20033;-58
2023/03/01 02:07:19;;;;;;;33.60;15.15;;;5.80;82.00;;;;;;5043792;28;20144;-58
2023/03/01 02:09:49;;;;;;;40.53;15.30;;;5.70;82.00;;;;;;5060111;28;20041;-57
2023/03/01 02:12:16;;;;;;;36.72;15.75;;;5.80;82.00;;;;;;5060134;28;20087;-57
2023/03/01 02:14:42;;;;;;;45.63;15.73;;;5.80;82.00;;;;;;5043617;28;20115;-57
2023/03/01 02:17:08;;;;;;;40.05;14.20;;;5.70;81.80;;;;;;5043599;28;20033;-58
2023/03/01 02:19:50;;;;;;;43.15;14.75;;;5.80;81.90;;;;;;5043512;28;20037;-57
2023/03/01 02:22:21;;;;;;;39.08;15.00;;;5.80;81.90;;;;;;5043623;28;20108;-58
2023/03/01 02:25:20;;;;;;;43.95;15.75;;;5.70;82.00;;;;;;5043232;28;20513;-58
2023/03/01 02:27:51;;;;;;;33.92;15.40;;;5.70;81.90;;;;;;5043558;28;20044;-57
2023/03/01 02:30:18;;;;;;;38.40;13.70;;;5.70;82.00;;;;;;5044778;28;20044;-58
2023/03/01 02:32:44;;;;;;;28.08;14.40;;;5.70;82.00;;;;;;5026859;28;20041;-58
2023/03/01 02:35:12;;;;;;;37.70;15.07;;;5.70;82.00;;;;;;5047086;28;20037;-58
2023/03/01 02:37:38;;;;;;;30.77;14.88;;;5.70;82.00;;;;;;5047412;28;20439;-58
2023/03/01 02:40:06;;;;;;;34.70;15.50;;;5.70;82.00;;;;;;5047204;28;20073;-57
2023/03/01 02:42:36;;;;;;;25.55;14.73;;;5.70;82.00;;;;;;5047296;28;20029;-58
2023/03/01 02:45:02;;;;;;;29.77;14.35;;;5.60;82.00;;;;;;5048476;28;20055;-57
2023/03/01 02:47:28;;;;;;;28.42;13.93;;;5.70;82.10;;;;;;5047998;28;20022;-57
2023/03/01 02:49:54;;;;;;;32.65;14.25;;;5.60;82.10;;;;;;5064071;28;20033;-58
2023/03/01 02:52:41;;;;;;;28.42;14.13;;;5.70;82.20;;;;;;5063948;28;20029;-57
2023/03/01 02:55:12;;;;;;;34.38;14.32;;;5.70;82.20;;;;;;5063766;28;20053;-58
2023/03/01 02:57:39;;;;;;;24.55;13.60;;;5.70;82.10;;;;;;5047360;28;20092;-58
2023/03/01 03:00:07;;;;;;;28.90;14.38;;;5.60;82.10;;;;;;5047007;28;20049;-58
2023/03/01 03:02:35;;;;;;;35.00;15.55;;;5.60;82.10;;;;;;5063734;28;20085;-57
2023/03/01 03:05:22;;;;;;;35.10;15.00;;;5.60;82.10;;;;;;5063248;28;20029;-58
2023/03/01 03:07:48;;;;;;;27.73;14.63;;;5.60;82.10;;;;;;5047215;28;20017;-59
2023/03/01 03:10:19;;;;;;;31.30;14.32;;;5.70;82.20;;;;;;5047087;28;20030;-57
2023/03/01 03:12:48;;;;;;;27.38;13.57;;;5.60;82.10;;;;;;5048318;28;20095;-57
2023/03/01 03:15:13;;;;;;;30.83;14.93;;;5.60;82.20;;;;;;5046681;28;20484;-57
2023/03/01 03:17:40;;;;;;;35.47;15.90;;;5.70;82.20;;;;;;5063485;28;20022;-58
2023/03/01 03:20:10;;;;;;;26.75;15.52;;;5.60;82.20;;;;;;5046542;28;20056;-57
2023/03/01 03:22:36;;;;;;;29.30;15.15;;;5.60;82.20;;;;;;5062687;28;20025;-57
2023/03/01 03:25:02;;;;;;;34.95;15.50;;;5.60;82.20;;;;;;5063234;28;20026;-58
2023/03/01 03:27:27;;;;;;;30.17;13.63;;;5.60;82.60;;;;;;5046459;28;20113;-58
2023/03/01 03:29:53;;;;;;;29.67;14.38;;;5.60;83.80;;;;;;5062953;28;20044;-57
2023/03/01 03:32:19;;;;;;;23.10;13.00;;;5.60;83.50;;;;;;5047641;28;20036;-57
2023/03/01 03:34:44;;;;;;;31.55;14.38;;;5.70;83.70;;;;;;5062825;28;20042;-58
2023/03/01 03:38:01;;;;;;;24.75;13.38;;;5.70;83.80;;;;;;5063052;28;20029;-58
2023/03/01 03:39:55;;;;;;;29.13;14.48;;;5.70;83.90;;;;;;5046435;28;20033;-58
2023/03/01 03:42:22;;;;;;;27.23;13.57;;;5.70;84.10;;;;;;5047555;28;20064;-58
2023/03/01 03:44:48;;;;;;;28.38;13.82;;;5.70;84.20;;;;;;5047454;28;20040;-58
2023/03/01 03:47:13;;;;;;;23.15;14.63;;;5.70;84.20;;;;;;5046351;28;20029;-57
2023/03/01 03:49:39;;;;;;;28.27;14.05;;;5.70;84.30;;;;;;5062907;28;20049;-57
2023/03/01 03:52:04;;;;;;;25.77;14.07;;;5.70;84.30;;;;;;5045979;28;20021;-58
2023/03/01 03:54:31;;;;;;;30.10;13.38;;;5.70;84.40;;;;;;5062512;28;20045;-57
2023/03/01 03:56:56;;;;;;;25.83;13.48;;;5.70;84.50;;;;;;5047496;28;20029;-58
2023/03/01 03:59:22;;;;;;;21.73;13.88;;;5.70;84.60;;;;;;5045592;28;20048;-58
2023/03/01 04:01:47;;;;;;;25.50;14.27;;;5.70;84.70;;;;;;5047096;28;20025;-58
2023/03/01 04:04:13;;;;;;;27.20;15.25;;;5.70;84.70;;;;;;5029056;28;20101;-57
2023/03/01 04:06:38;;;;;;;28.20;14.55;;;5.70;84.70;;;;;;5046841;28;20025;-57
2023/03/01 04:09:04;;;;;;;27.48;14.38;;;5.70;84.60;;;;;;5046918;28;20026;-57
2023/03/01 04:11:30;;;;;;;27.88;12.95;;;5.70;84.60;;;;;;5047060;28;20128;-57
2023/03/01 04:13:57;;;;;;;24.85;14.52;;;5.70;84.50;;;;;;5062188;28;20100;-57
2023/03/01 04:16:23;;;;;;;23.88;14.85;;;5.70;84.50;;;;;;5045490;28;20021;-57
2023/03/01 04:18:48;;;;;;;29.70;15.90;;;5.80;84.40;;;;;;5046812;28;20025;-57
2023/03/01 04:21:14;;;;;;;29.00;14.60;;;5.70;84.30;;;;;;5046756;28;20030;-57
2023/03/01 04:23:40;;;;;;;26.92;16.88;;;5.70;84.20;;;;;;5046594;28;20061;-57
2023/03/01 04:26:06;;;;;;;27.95;16.85;;;5.70;84.10;;;;;;5061791;28;20089;-57
2023/03/01 04:28:36;;;;;;;26.20;15.00;;;5.80;84.10;;;;;;5061808;28;20170;-57
2023/03/01 04:31:12;;;;;;;25.23;16.63;;;5.80;84.10;;;;;;5045255;28;20032;-58
2023/03/01 04:33:39;;;;;;;32.38;19.48;;;5.80;84.00;;;;;;5060815;28;20128;-58
2023/03/01 04:36:05;;;;;;;30.73;20.33;;;5.80;84.00;;;;;;5061812;28;20056;-57
2023/03/01 04:38:30;;;;;;;30.48;19.38;;;5.80;83.90;;;;;;5045600;28;20029;-58
2023/03/01 04:40:56;;;;;;;35.00;19.55;;;5.80;84.50;;;;;;5062081;28;20468;-57
2023/03/01 04:43:21;;;;;;;46.88;20.02;;;5.80;83.80;;;;;;5061611;28;20477;-57
2023/03/01 04:45:47;;;;;;;35.42;19.08;;;5.80;83.70;;;;;;5046510;28;20048;-58
2023/03/01 04:48:12;;;;;;;43.25;19.95;;;5.80;83.60;;;;;;5046586;28;20029;-58
2023/03/01 04:50:38;;;;;;;29.92;19.35;;;5.80;83.50;;;;;;5044659;28;20041;-57
2023/03/01 04:53:03;;;;;;;40.72;21.48;;;5.80;83.50;;;;;;5044668;28;20502;-58
2023/03/01 04:55:29;;;;;;;38.90;20.50;;;5.80;83.40;;;;;;5046089;28;20442;-58
2023/03/01 04:57:54;;;;;;;32.13;19.65;;;5.80;83.40;;;;;;5045535;28;20027;-57
2023/03/01 05:00:20;;;;;;;45.05;20.10;;;5.80;83.30;;;;;;5045994;28;20033;-58
2023/03/01 05:02:53;;;;;;;33.97;19.50;;;5.80;83.30;;;;;;5061187;28;20022;-58
2023/03/01 05:05:20;;;;;;;33.80;18.27;;;5.80;83.20;;;;;;5061058;28;20029;-58
2023/03/01 05:07:46;;;;;;;48.85;18.85;;;5.80;83.20;;;;;;5061096;28;20111;-57
2023/03/01 05:10:12;;;;;;;37.20;19.08;;;5.80;83.10;;;;;;5061039;28;20033;-57
2023/03/01 05:12:37;;;;;;;42.78;18.17;;;5.80;83.10;;;;;;5061146;28;20085;-58
2023/03/01 05:15:06;;;;;;;34.72;19.15;;;5.80;83.10;;;;;;5044164;28;20037;-57
2023/03/01 05:17:33;;;;;;;36.50;18.77;;;5.80;83.10;;;;;;5060412;28;20045;-58
2023/03/01 05:19:59;;;;;;;41.38;18.60;;;5.80;83.10;;;;;;5060723;28;20029;-58
2023/03/01 05:22:25;;;;;;;38.03;18.42;;;5.80;83.10;;;;;;5044305;28;20041;-58
2023/03/01 05:24:50;;;;;;;41.08;18.73;;;5.80;83.00;;;;;;5060643;28;20033;-57
2023/03/01 05:27:16;;;;;;;35.20;18.38;;;5.80;83.00;;;;;;5044096;28;20022;-57
2023/03/01 05:29:41;;;;;;;29.75;19.00;;;5.80;83.00;;;;;;5060595;28;20045;-57
2023/03/01 05:32:08;;;;;;;28.30;17.98;;;5.80;82.90;;;;;;5060622;28;20366;-57
2023/03/01 05:34:35;;;;;;;33.17;19.38;;;5.80;82.80;;;;;;5060355;28;20030;-58
2023/03/01 05:37:00;;;;;;;37.60;19.60;;;5.80;82.80;;;;;;5043998;28;20095;-58
2023/03/01 05:39:27;;;;;;;39.50;19.60;;;5.80;82.80;;;;;;5027072;28;20045;-58
2023/03/01 05:41:56;;;;;;;29.48;17.63;;;5.80;82.80;;;;;;5045293;28;20033;-58
2023/03/01 05:44:22;;;;;;;27.75;18.15;;;5.80;82.90;;;;;;5043756;28;20048;-57
2023/03/01 05:46:47;;;;;;;34.78;17.83;;;5.80;82.90;;;;;;5060456;28;20017;-57
2023/03/01 05:49:14;;;;;;;29.30;17.27;;;5.80;82.90;;;;;;5043475;28;20507;-57
2023/03/01 05:51:41;;;;;;;24.33;17.30;;;5.80;82.90;;;;;;5060218;28;20040;-58
2023/03/01 05:54:07;;;;;;;31.02;18.20;;;5.80;83.00;;;;;;5043576;28;20018;-57
2023/03/01 05:56:36;;;;;;;35.60;20.00;;;5.80;83.00;;;;;;5060255;28;20082;-58
2023/03/01 05:59:02;;;;;;;39.33;18.95;;;5.80;83.00;;;;;;5043460;28;20021;-57
2023/03/01 06:01:27;;;;;;;26.15;19.00;;;5.70;83.00;;;;;;5044894;28;20095;-58
2023/03/01 06:03:53;;;;;;;34.38;19.40;;;5.70;83.00;;;;;;5043465;28;20017;-58
2023/03/01 06:06:19;;;;;;;28.80;19.88;;;5.70;83.10;;;;;;5059950;28;20417;-58
2023/03/01 06:08:44;;;;;;;28.50;18.58;;;5.70;83.20;;;;;;5042409;28;20029;-58
2023/03/01 06:11:10;;;;;;;28.40;17.73;;;5.70;83.20;;;;;;5044643;28;20544;-58
2023/03/01 06:13:35;;;;;;;25.80;18.15;;;5.70;83.30;;;;;;5060005;28;20043;-57
2023/03/01 06:16:03;;;;;;;28.85;18.60;;;5.70;83.20;;;;;;5043095;28;20036;-58
2023/03/01 06:18:29;;;;;;;33.03;18.42;;;5.70;83.30;;;;;;5043589;28;20025;-57
2023/03/01 06:20:55;;;;;;;28.10;18.65;;;5.70;83.30;;;;;;5044763;28;20022;-57
2023/03/01 06:23:21;;;;;;;33.45;19.20;;;5.70;83.30;;;;;;5059923;28;20051;-57
2023/03/01 06:25:46;;;;;;;25.58;19.02;;;5.70;83.30;;;;;;5059998;28;20026;-58
2023/03/01 06:28:12;;;;;;;24.90;17.48;;;5.70;83.30;;;;;;5043177;28;20029;-57
2023/03/01 06:30:37;;;;;;;35.20;19.48;;;5.70;83.30;;;;;;5044964;28;20047;-58
2023/03/01 06:33:03;;;;;;;24.88;18.30;;;5.70;83.30;;;;;;5043199;28;20029;-58
2023/03/01 06:35:31;;;;;;;30.73;18.77;;;5.70;83.30;;;;;;5044584;28;20101;-58
2023/03/01 06:37:57;;;;;;;28.95;17.35;;;5.70;83.30;;;;;;5043063;28;20502;-57
2023/03/01 06:40:22;;;;;;;26.40;18.25;;;5.70;83.30;;;;;;5059409;28;20060;-58
2023/03/01 06:42:49;;;;;;;24.10;19.17;;;5.70;83.30;;;;;;5043099;28;20029;-57
2023/03/01 06:45:14;;;;;;;26.02;18.15;;;5.70;83.30;;;;;;5044514;28;20049;-58
2023/03/01 06:47:40;;;;;;;27.92;18.33;;;5.70;83.30;;;;;;5042928;28;20017;-57
2023/03/01 06:50:05;;;;;;;26.92;17.98;;;5.70;83.30;;;;;;5042844;28;20152;-58
2023/03/01 06:52:31;;;;;;;25.23;18.05;;;5.70;83.30;;;;;;5044380;28;20500;-57
2023/03/01 06:54:57;;;;;;;26.48;17.85;;;5.70;83.30;;;;;;5059647;28;20091;-58
2023/03/01 06:57:22;;;;;;;24.88;18.17;;;5.70;83.20;;;;;;5059694;28;20025;-57
2023/03/01 06:59:48;;;;;;;25.15;18.77;;;5.70;83.20;;;;;;5044179;28;20033;-57
2023/03/01 07:02:14;;;;;;;24.38;17.73;;;5.70;83.20;;;;;;5042917;28;20021;-57
2023/03/01 07:04:40;;;;;;;25.50;19.30;;;5.70;83.10;;;;;;5042638;28;20022;-58
2023/03/01 07:07:06;;;;;;;20.98;18.30;;;5.70;83.10;;;;;;5044255;28;20032;-57
2023/03/01 07:09:31;;;;;;;25.38;18.80;;;5.70;83.20;;;;;;5059231;28;20030;-58
2023/03/01 07:11:57;;;;;;;29.23;18.63;;;5.70;83.10;;;;;;5043950;28;20138;-58
2023/03/01 07:14:24;;;;;;;26.83;18.48;;;5.70;83.10;;;;;;5044118;28;20037;-57
2023/03/01 07:16:49;;;;;;;21.75;17.40;;;5.70;83.20;;;;;;5042823;28;20081;-57
2023/03/01 07:19:15;;;;;;;28.83;19.50;;;5.60;83.10;;;;;;5059825;28;20375;-57
2023/03/01 07:21:41;;;;;;;31.77;19.60;;;5.60;83.10;;;;;;5046443;28;20040;-58
2023/03/01 07:24:07;;;;;;;22.25;19.10;;;5.60;83.10;;;;;;5063069;28;20211;-58
2023/03/01 07:26:32;;;;;;;21.63;17.25;;;5.70;83.20;;;;;;5047857;28;20056;-57
2023/03/01 07:29:02;;;;;;;24.98;17.90;;;5.70;83.20;;;;;;5046123;28;20045;-58
2023/03/01 07:31:27;;;;;;;26.88;18.35;;;5.70;83.30;;;;;;5046248;28;20041;-58
2023/03/01 07:33:54;;;;;;;26.17;18.08;;;5.60;83.20;;;;;;5063077;28;20035;-57
2023/03/01 07:36:19;;;;;;;25.77;18.40;;;5.60;83.20;;;;;;5062731;28;20060;-57
2023/03/01 07:38:45;;;;;;;25.52;18.95;;;5.60;83.20;;;;;;5029568;28;20034;-57
2023/03/01 07:41:10;;;;;;;27.20;18.45;;;5.70;83.30;;;;;;5062729;28;20036;-57
2023/03/01 07:43:36;;;;;;;26.80;18.73;;;5.70;83.30;;;;;;5062933;28;20022;-58
2023/03/01 07:46:02;;;;;;;24.73;18.15;;;5.60;83.30;;;;;;5062539;28;20048;-58
2023/03/01 07:48:28;;;;;;;21.80;18.98;;;5.70;83.30;;;;;;5062285;28;20371;-57
2023/03/01 07:50:53;;;;;;;22.17;18.80;;;5.60;83.30;;;;;;5049449;28;20048;-57
2023/03/01 07:53:19;;;;;;;23.63;19.05;;;5.60;83.30;;;;;;5047127;28;20017;-57
2023/03/01 07:55:44;;;;;;;24.63;18.13;;;5.70;83.40;;;;;;5047726;28;20044;-57
2023/03/01 07:58:10;;;;;;;25.95;18.90;;;5.70;83.40;;;;;;5062839;28;20094;-57
2023/03/01 08:00:35;;;;;;;22.13;17.85;;;5.70;83.40;;;;;;5047337;28;20037;-57
2023/03/01 08:03:01;;;;;;;24.13;18.27;;;5.70;83.40;;;;;;5062189;28;20061;-57
2023/03/01 08:05:27;;;;;;;24.95;18.75;;;5.70;83.40;;;;;;5062426;28;20029;-57
2023/03/01 08:07:53;;;;;;;20.77;17.73;;;5.70;83.40;;;;;;5045648;28;20029;-57
2023/03/01 08:10:19;;;;;;;27.55;18.65;;;5.70;83.40;;;;;;5046996;28;20389;-57
2023/03/01 08:12:44;;;;;;;22.33;18.20;;;5.70;83.40;;;;;;5062040;28;20033;-57
2023/03/01 08:15:10;;;;;;;32.75;18.90;;;5.60;83.30;;;;;;5046951;28;20347;-57
2023/03/01 08:17:36;;;;;;;26.05;19.05;;;5.70;83.40;;;;;;5062153;28;20441;-57
2023/03/01 08:20:03;;;;;;;26.92;19.20;;;5.70;83.50;;;;;;5061889;28;20080;-57
2023/03/01 08:22:28;;;;;;;24.83;18.65;;;5.70;83.40;;;;;;5028932;28;20021;-57
2023/03/01 08:24:55;;;;;;;21.58;17.90;;;5.70;83.40;;;;;;5061864;28;20036;-57
2023/03/01 08:27:21;;;;;;;23.45;17.92;;;5.70;83.40;;;;;;5045180;28;20032;-57
2023/03/01 08:29:46;;;;;;;23.98;17.15;;;5.70;83.40;;;;;;5046573;28;20030;-57
2023/03/01 08:32:12;;;;;;;27.55;18.88;;;5.70;83.70;;;;;;5060840;28;20025;-57
2023/03/01 08:34:37;;;;;;;31.40;19.20;;;5.70;83.60;;;;;;5046425;28;20393;-57
2023/03/01 08:37:03;;;;;;;26.50;18.50;;;5.70;83.50;;;;;;5028312;28;20030;-57
2023/03/01 08:39:29;;;;;;;24.75;17.67;;;5.70;83.50;;;;;;5044802;28;20032;-57
2023/03/01 08:41:54;;;;;;;22.65;17.98;;;5.70;83.50;;;;;;5058348;28;20037;-57
2023/03/01 08:44:20;;;;;;;23.48;17.27;;;5.70;83.50;;;;;;5044869;28;20033;-57
2023/03/01 08:46:46;;;;;;;22.60;18.17;;;5.70;83.50;;;;;;5044545;28;20045;-57
2023/03/01 08:49:16;;;;;;;21.67;17.65;;;5.70;83.50;;;;;;5046036;28;20029;-57
2023/03/01 08:51:43;;;;;;;29.65;18.20;;;5.70;83.50;;;;;;5046242;28;20032;-57
2023/03/01 08:54:15;;;;;;;24.38;15.95;;;5.70;83.50;;;;;;5044829;28;20031;-57
2023/03/01 08:56:40;;;;;;;27.13;17.77;;;5.70;83.50;;;;;;5044566;28;20033;-57
2023/03/01 08:59:06;;;;;;;28.33;18.10;;;5.70;84.20;;;;;;5046015;28;20048;-57
2023/03/01 09:01:31;;;;;;;28.10;17.13;;;5.70;83.60;;;;;;5044007;28;20148;-57
2023/03/01 09:03:57;;;;;;;601.50;60.22;;;5.70;83.60;;;;;;5044283;28;20076;-57
2023/03/01 09:06:23;;;;;;;84.25;23.17;;;5.70;83.60;;;;;;5045469;28;20041;-57
2023/03/01 09:08:49;;;;;;;69.28;21.27;;;5.80;83.80;;;;;;5044402;28;20022;-57
2023/03/01 09:11:16;;;;;;;83.22;21.65;;;5.80;83.80;;;;;;5028105;28;20075;-57
2023/03/01 09:13:43;;;;;;;135.25;28.55;;;5.80;83.80;;;;;;5044400;28;20044;-57
2023/03/01 09:16:08;;;;;;;89.38;22.60;;;5.80;83.70;;;;;;5027821;28;20172;-57
2023/03/01 09:18:34;;;;;;;44.35;20.27;;;5.80;83.70;;;;;;5044325;28;20029;-57
2023/03/01 09:21:07;;;;;;;63.80;21.88;;;5.80;83.80;;;;;;5043902;28;20044;-57
2023/03/01 09:23:36;;;;;;;43.35;19.67;;;5.80;83.80;;;;;;5028321;28;20041;-57
2023/03/01 09:26:01;;;;;;;46.40;20.02;;;5.80;83.90;;;;;;5044059;28;20095;-57
2023/03/01 09:28:27;;;;;;;42.40;20.38;;;5.80;83.90;;;;;;5027462;28;20033;-57
2023/03/01 09:30:53;;;;;;;57.72;21.10;;;5.90;83.90;;;;;;5043559;28;20037;-57
2023/03/01 09:33:18;;;;;;;47.08;21.02;;;5.80;83.90;;;;;;5043653;28;20075;-57
2023/03/01 09:35:46;;;;;;;72.50;21.25;;;5.90;84.00;;;;;;5023097;28;20065;-57
2023/03/01 09:38:13;;;;;;;60.58;20.77;;;5.80;84.00;;;;;;5040216;28;20046;-57
2023/03/01 09:40:42;;;;;;;44.58;20.60;;;5.80;84.00;;;;;;5041964;28;20126;-57
2023/03/01 09:43:31;;;;;;;52.90;20.98;;;5.80;83.90;;;;;;5041672;28;20021;-57
2023/03/01 09:45:59;;;;;;;53.88;20.20;;;5.90;84.00;;;;;;5039954;28;20072;-57
2023/03/01 09:48:26;;;;;;;59.45;20.77;;;5.90;83.90;;;;;;5024992;28;20025;-57
2023/03/01 09:50:52;;;;;;;64.57;20.65;;;5.90;83.80;;;;;;5024881;28;20097;-57
2023/03/01 09:53:29;;;;;;;59.90;20.35;;;5.90;83.80;;;;;;5041243;28;20529;-57
2023/03/01 09:55:59;;;;;;;63.80;22.52;;;5.90;83.80;;;;;;5025411;28;20085;-57
2023/03/01 09:58:52;;;;;;;51.90;19.95;;;5.90;83.80;;;;;;5010452;28;20029;-57
2023/03/01 10:01:31;;;;;;;73.15;22.67;;;5.90;83.90;;;;;;5044545;28;20107;-57
2023/03/01 10:04:34;;;;;;;43.33;20.52;;;5.90;84.00;;;;;;5043741;28;20025;-56
2023/03/01 10:07:28;;;;;;;50.67;20.48;;;5.90;84.00;;;;;;5044914;28;20033;-57
2023/03/01 10:09:53;;;;;;;47.85;18.92;;;5.90;83.90;;;;;;5044549;28;20113;-57
2023/03/01 10:12:33;;;;;;;60.92;19.58;;;5.90;83.90;;;;;;5026798;28;20025;-57
2023/03/01 10:15:05;;;;;;;54.60;20.15;;;6.00;84.00;;;;;;5027218;28;20072;-57
2023/03/01 10:17:37;;;;;;;43.60;20.02;;;6.00;84.00;;;;;;5043201;28;20057;-57
2023/03/01 10:20:17;;;;;;;44.30;18.67;;;6.00;83.90;;;;;;5043153;28;20037;-57
2023/03/01 10:22:46;;;;;;;44.15;20.50;;;6.00;84.00;;;;;;5043258;28;20028;-57
2023/03/01 10:25:13;;;;;;;40.50;19.75;;;6.00;84.10;;;;;;5044389;28;20029;-57
2023/03/01 10:27:54;;;;;;;45.08;19.15;;;6.00;84.10;;;;;;5026846;28;20111;-57
2023/03/01 10:30:33;;;;;;;39.45;17.50;;;6.00;84.10;;;;;;5027133;28;20039;-57
2023/03/01 10:32:59;;;;;;;39.40;19.40;;;5.90;84.00;;;;;;5026806;28;20028;-57
2023/03/01 10:35:27;;;;;;;35.67;19.15;;;6.00;84.00;;;;;;5026632;28;20071;-55
2023/03/01 10:38:10;;;;;;;47.42;19.10;;;6.00;84.00;;;;;;5044358;28;20060;-55
2023/03/01 10:40:36;;;;;;;32.35;18.00;;;6.00;84.00;;;;;;5044321;28;20039;-55
2023/03/01 10:43:05;;;;;;;44.70;19.25;;;6.00;84.00;;;;;;5043069;28;20032;-55
2023/03/01 10:45:34;;;;;;;51.72;20.27;;;6.00;83.90;;;;;;5042835;28;20137;-55
2023/03/01 10:48:26;;;;;;;69.22;20.83;;;6.00;83.90;;;;;;5044103;28;20105;-55
2023/03/01 10:50:57;;;;;;;46.83;19.23;;;6.00;84.20;;;;;;5043029;28;20044;-55
2023/03/01 10:53:40;;;;;;;63.72;19.98;;;6.10;84.30;;;;;;5044148;28;20030;-55
2023/03/01 10:56:13;;;;;;;56.72;20.02;;;6.10;84.30;;;;;;5047919;28;20040;-55
2023/03/01 10:58:40;;;;;;;47.30;19.35;;;6.10;84.40;;;;;;5046750;28;20036;-55
2023/03/01 11:01:07;;;;;;;41.10;18.60;;;6.10;84.40;;;;;;5030434;28;20041;-55
2023/03/01 11:03:37;;;;;;;45.88;19.67;;;6.10;84.50;;;;;;5047127;28;20056;-56
2023/03/01 11:06:12;;;;;;;48.10;20.25;;;6.10;84.50;;;;;;5046364;28;20033;-55
2023/03/01 11:08:45;;;;;;;;;;;6.10;84.30;;;;;;5030057;28;20037;-55
2023/03/01 11:11:24;;;;;;;48.03;18.42;;;6.10;84.30;;;;;;5046114;28;19913;-56
2023/03/01 11:13:54;;;;;;;40.38;18.40;;;6.10;84.30;;;;;;5055157;28;20036;-55
2023/03/01 11:16:24;;;;;;;82.90;21.70;;;6.10;84.30;;;;;;5050724;28;20037;-54
2023/03/01 11:19:13;;;;;;;70.80;20.17;;;6.20;84.30;;;;;;5040937;28;20039;-55
2023/03/01 11:21:45;;;;;;;107.45;23.23;;;6.20;84.30;;;;;;5032786;28;20063;-55
2023/03/01 11:24:12;;;;;;;53.08;19.90;;;6.20;84.40;;;;;;5048586;28;20036;-55
2023/03/01 11:26:44;;;;;;;71.53;20.05;;;6.20;84.30;;;;;;5045964;28;20056;-55
2023/03/01 11:29:35;;;;;;;65.22;21.55;;;6.20;84.20;;;;;;5029482;28;20048;-55
2023/03/01 11:32:02;;;;;;;60.35;21.05;;;6.20;84.30;;;;;;5046641;28;20108;-55
2023/03/01 11:34:45;;;;;;;63.22;20.92;;;6.30;84.50;;;;;;5046489;28;20037;-56
2023/03/01 11:37:24;;;;;;;70.20;20.85;;;6.30;84.50;;;;;;5045088;28;20032;-55
2023/03/01 11:39:59;;;;;;;72.20;21.50;;;6.30;84.20;;;;;;5044195;28;20440;-55
2023/03/01 11:42:29;;;;;;;47.05;19.30;;;6.30;84.30;;;;;;5028266;28;20036;-55
2023/03/01 11:44:55;;;;;;;58.67;22.38;;;6.30;84.20;;;;;;5043593;28;20025;-55
2023/03/01 11:47:37;;;;;;;195.30;30.30;;;6.30;84.40;;;;;;5043263;28;20464;-55
2023/03/01 11:50:19;;;;;;;96.50;22.88;;;6.30;84.70;;;;;;5044623;28;20129;-55
2023/03/01 11:52:54;;;;;;;67.40;20.30;;;6.30;84.60;;;;;;5044051;28;20029;-55
2023/03/01 11:55:29;;;;;;;66.82;20.98;;;6.30;84.40;;;;;;5045256;28;20065;-55
2023/03/01 11:58:33;;;;;;;83.68;22.85;;;6.30;84.40;;;;;;5031736;28;20040;-55
2023/03/01 12:01:12;;;;;;;70.05;21.55;;;6.30;85.00;;;;;;5014223;28;20080;-56
2023/03/01 12:04:09;;;;;;;72.88;22.60;;;6.40;84.40;;;;;;5033903;28;20037;-55
2023/03/01 12:06:34;;;;;;;102.55;24.27;;;6.40;84.50;;;;;;5043759;28;20098;-55
2023/03/01 12:09:19;;;;;;;124.95;23.77;;;6.40;84.80;;;;;;5044789;28;20038;-55
2023/03/01 12:12:10;;;;;;;90.88;22.17;;;6.40;84.70;;;;;;5045949;28;20075;-55
2023/03/01 12:14:49;;;;;;;98.38;22.63;;;6.40;84.70;;;;;;5044986;28;20056;-55
2023/03/01 12:17:42;;;;;;;93.30;23.40;;;6.40;84.60;;;;;;5045169;28;20029;-55
2023/03/01 12:20:21;;;;;;;88.40;24.02;;;6.40;84.60;;;;;;5045044;28;20156;-55
2023/03/01 12:23:24;;;;;;;88.30;23.88;;;6.40;84.70;;;;;;5012666;28;20045;-55
2023/03/01 12:25:55;;;;;;;82.97;22.40;;;6.50;84.80;;;;;;5046469;28;20030;-55
2023/03/01 12:28:43;;;;;;;106.13;26.58;;;6.50;84.80;;;;;;5044993;28;20044;-55
2023/03/01 12:31:27;;;;;;;92.45;23.23;;;6.50;84.80;;;;;;5028911;28;20029;-55
2023/03/01 12:34:02;;;;;;;119.13;25.05;;;6.50;84.70;;;;;;5044692;28;20035;-55
2023/03/01 12:37:23;;;;;;;80.28;23.88;;;6.50;84.70;;;;;;5045397;28;20047;-55
2023/03/01 12:40:03;;;;;;;80.18;22.95;;;6.50;84.60;;;;;;5019483;28;20042;-55
2023/03/01 12:42:32;;;;;;;101.10;24.27;;;6.50;84.70;;;;;;5044513;28;20103;-56
2023/03/01 12:45:21;;;;;;;64.85;22.20;;;6.50;84.60;;;;;;5053255;28;20035;-55
2023/03/01 12:47:59;;;;;;;84.38;22.95;;;6.50;84.60;;;;;;5051347;28;20017;-55